Baraga, Michigan
Current Conditions -  °F | °C
As of 2:53 AM on Monday 26 Jan 2015 (Local Time) from KCMX Reporting Station
Overcast Overcast  
Wind Chill: -4°   Ceiling: 6500
Heat Index:   Visibility: 10mi
Dew Point:   Wind: 9mph
Humidity: 80%   Direction: 200°SSW
Pressure: 29.89"   Gusts: NA
Location:  46.78°N, 88.49°W
Report Text: KCMX 260753Z AUTO 20008KT 10SM OVC065 M13/M16 A2989 RMK AO2 SLP146 T11281156
Loading
Personal Weather Stations






























Interactive Weather Map New forecast layout! Learn more

10-Day Weather Forecast

Advertisements
Track Severe Weather on mobile